createdAt,value
2022-09-01T00:00:03.423Z,11.60
2022-09-01T00:02:31.012Z,12.37
2022-09-01T00:04:58.678Z,12.03
2022-09-01T00:07:30.013Z,12.17
2022-09-01T00:09:56.845Z,12.40
2022-09-01T00:12:25.641Z,12.70
2022-09-01T00:14:53.370Z,12.90
2022-09-01T00:17:20.296Z,12.20
2022-09-01T00:19:47.165Z,12.43
2022-09-01T00:22:13.951Z,11.70
2022-09-01T00:24:40.732Z,11.87
2022-09-01T00:27:07.513Z,12.20
2022-09-01T00:29:34.488Z,12.40
2022-09-01T00:32:01.211Z,11.90
2022-09-01T00:34:27.942Z,12.30
2022-09-01T00:36:54.744Z,11.83
2022-09-01T00:39:21.617Z,12.40
2022-09-01T00:41:50.742Z,14.13
2022-09-01T00:44:23.972Z,13.17
2022-09-01T00:46:55.482Z,11.53
2022-09-01T00:49:37.070Z,11.87
2022-09-01T00:52:19.239Z,12.50
2022-09-01T00:54:50.633Z,12.57
2022-09-01T00:57:17.803Z,12.53
2022-09-01T01:00:11.395Z,12.83
2022-09-01T01:02:40.541Z,11.37
2022-09-01T01:05:08.455Z,12.30
2022-09-01T01:07:43.362Z,12.63
2022-09-01T01:10:15.961Z,13.00
2022-09-01T01:12:43.861Z,13.47
2022-09-01T01:15:13.065Z,13.80
2022-09-01T01:17:40.329Z,12.83
2022-09-01T01:20:28.145Z,13.40
2022-09-01T01:23:09.040Z,13.83
2022-09-01T01:25:38.377Z,13.40
2022-09-01T01:28:14.259Z,12.97
2022-09-01T01:30:53.377Z,13.00
2022-09-01T01:33:23.517Z,13.67
2022-09-01T01:35:52.678Z,12.57
2022-09-01T01:38:22.765Z,13.50
2022-09-01T01:40:51.708Z,13.03
2022-09-01T01:43:21.785Z,14.17
2022-09-01T01:45:52.167Z,14.53
2022-09-01T01:48:24.608Z,12.93
2022-09-01T01:50:53.178Z,13.30
2022-09-01T01:53:20.714Z,13.10
2022-09-01T01:55:49.659Z,12.83
2022-09-01T01:58:22.078Z,13.30
2022-09-01T02:00:50.567Z,13.90
2022-09-01T02:03:38.321Z,14.07
2022-09-01T02:06:08.239Z,13.47
2022-09-01T02:08:37.304Z,14.00
2022-09-01T02:11:05.932Z,14.03
2022-09-01T02:13:32.877Z,12.50
2022-09-01T02:16:03.485Z,12.03
2022-09-01T02:18:38.725Z,11.40
2022-09-01T02:21:14.986Z,12.40
2022-09-01T02:23:43.501Z,15.87
2022-09-01T02:26:16.449Z,13.67
2022-09-01T02:28:54.411Z,12.10
2022-09-01T02:31:23.082Z,11.23
2022-09-01T02:33:50.188Z,11.17
2022-09-01T02:36:19.658Z,11.37
2022-09-01T02:38:53.089Z,11.10
2022-09-01T02:41:23.671Z,12.07
2022-09-01T02:43:50.838Z,12.50
2022-09-01T02:46:17.826Z,13.17
2022-09-01T02:48:46.083Z,12.17
2022-09-01T02:51:16.010Z,12.43
2022-09-01T02:53:49.762Z,13.03
2022-09-01T02:56:18.538Z,11.67
2022-09-01T02:58:47.880Z,12.00
2022-09-01T03:01:19.528Z,11.60
2022-09-01T03:03:47.232Z,12.10
2022-09-01T03:06:14.969Z,10.90
2022-09-01T03:08:41.736Z,11.67
2022-09-01T03:11:13.024Z,11.93
2022-09-01T03:13:41.672Z,11.70
2022-09-01T03:16:09.346Z,12.10
2022-09-01T03:18:36.934Z,13.13
2022-09-01T03:21:05.204Z,11.37
2022-09-01T03:23:33.976Z,11.80
2022-09-01T03:26:01.552Z,11.70
2022-09-01T03:28:29.842Z,11.67
2022-09-01T03:30:57.956Z,10.97
2022-09-01T03:33:26.955Z,11.73
2022-09-01T03:35:56.853Z,11.83
2022-09-01T03:38:24.792Z,11.80
2022-09-01T03:40:54.457Z,13.13
2022-09-01T03:43:27.155Z,11.40
2022-09-01T03:46:01.373Z,11.23
2022-09-01T03:48:29.909Z,11.70
2022-09-01T03:51:02.648Z,11.93
2022-09-01T03:53:34.161Z,12.53
2022-09-01T03:56:01.554Z,12.70
2022-09-01T03:58:28.518Z,13.10
2022-09-01T04:00:58.312Z,12.27
2022-09-01T04:03:28.995Z,12.93
2022-09-01T04:05:56.928Z,13.20
2022-09-01T04:08:33.014Z,12.57
2022-09-01T04:11:10.955Z,12.27
2022-09-01T04:13:40.998Z,13.23
2022-09-01T04:16:36.839Z,13.17
2022-09-01T04:19:15.881Z,13.17
2022-09-01T04:21:43.954Z,13.13
2022-09-01T04:24:13.350Z,13.33
2022-09-01T04:26:41.062Z,11.83
2022-09-01T04:29:09.137Z,11.60
2022-09-01T04:31:38.682Z,11.40
2022-09-01T04:34:13.214Z,11.40
2022-09-01T04:36:42.198Z,12.27
2022-09-01T04:39:11.842Z,12.57
2022-09-01T04:41:42.577Z,12.80
2022-09-01T04:44:09.622Z,12.77
2022-09-01T04:46:42.224Z,12.40
2022-09-01T04:49:13.320Z,13.00
2022-09-01T04:51:50.025Z,12.33
2022-09-01T04:54:21.192Z,12.50
2022-09-01T04:56:52.811Z,14.33
2022-09-01T04:59:23.012Z,12.70
2022-09-01T05:01:50.783Z,13.20
2022-09-01T05:04:22.731Z,14.47
2022-09-01T05:06:55.979Z,13.23
2022-09-01T05:09:32.852Z,13.80
2022-09-01T05:48:03.472Z,11.77
2022-09-01T09:43:42.912Z,10.82
2022-09-01T09:46:25.262Z,10.93
2022-09-01T09:49:11.106Z,11.02
2022-09-01T09:51:41.445Z,10.90
2022-09-01T09:54:27.417Z,10.55
2022-09-01T09:57:09.559Z,11.18
2022-09-01T09:59:59.287Z,10.88
2022-09-01T10:02:39.951Z,12.23
2022-09-01T10:05:40.341Z,11.10
2022-09-01T10:08:37.187Z,10.63
2022-09-01T10:11:06.027Z,10.45
2022-09-01T10:13:36.615Z,11.32
2022-09-01T10:16:09.042Z,10.50
2022-09-01T10:18:54.246Z,10.50
2022-09-01T10:21:52.648Z,11.18
2022-09-01T10:24:58.450Z,11.38
2022-09-01T10:27:30.681Z,10.50
2022-09-01T10:30:18.768Z,10.63
2022-09-01T10:33:07.437Z,9.93
2022-09-01T10:35:53.361Z,10.30
2022-09-01T10:41:59.926Z,11.02
2022-09-01T10:44:36.266Z,10.77
2022-09-01T10:47:30.070Z,10.20
2022-09-01T10:49:59.843Z,9.93
2022-09-01T10:52:50.544Z,10.20
2022-09-01T10:55:44.510Z,11.82
2022-09-01T11:01:49.059Z,9.80
2022-09-01T11:04:24.988Z,10.60
2022-09-01T11:09:57.329Z,9.20
2022-09-01T11:12:29.227Z,9.50
2022-09-01T11:15:02.601Z,9.43
2022-09-01T11:17:38.885Z,9.82
2022-09-01T11:20:28.248Z,10.10
2022-09-01T11:23:19.553Z,9.60
2022-09-01T11:28:46.047Z,9.20
2022-09-01T11:31:31.790Z,10.05
2022-09-01T11:34:04.496Z,10.20
2022-09-01T11:36:47.273Z,10.20
2022-09-01T11:39:18.092Z,10.10
2022-09-01T11:42:25.943Z,10.75
2022-09-01T11:45:30.836Z,10.05
2022-09-01T11:48:13.475Z,9.07
2022-09-01T11:50:42.361Z,9.65
2022-09-01T11:53:20.124Z,9.25
2022-09-01T11:55:50.606Z,10.00
2022-09-01T11:58:34.557Z,9.85
2022-09-01T12:01:31.258Z,9.32
2022-09-01T12:03:59.025Z,9.60
2022-09-01T12:06:30.209Z,9.95
2022-09-01T12:08:59.785Z,9.55
2022-09-01T12:11:31.044Z,10.15
2022-09-01T12:14:11.103Z,9.68
2022-09-01T12:16:42.662Z,11.32
2022-09-01T12:19:30.249Z,10.50
2022-09-01T12:22:16.967Z,10.32
2022-09-01T12:24:54.957Z,10.80
2022-09-01T12:27:31.209Z,10.68
2022-09-01T12:30:00.239Z,10.95
2022-09-01T12:32:27.781Z,10.70
2022-09-01T12:35:11.017Z,10.88
2022-09-01T12:37:49.342Z,10.57
